Time;durP1;ratioP1;P1;durP2;ratioP2;P2;SDS_P1;SDS_P2;PMS_P1;PMS_P2;Temp;Humidity;BMP_temperature;BMP_pressure;BME280_temperature;BME280_humidity;BME280_pressure;Samples;Min_cycle;Max_cycle;Signal;HPM_P1;HPM_P2
2021/09/03 00:00:57;;;;;;;2.08;1.60;;;;;;;23.50;40.69;99797.66;1772491;79;21052;-68
2021/09/03 00:03:23;;;;;;;2.33;1.65;;;;;;;23.49;40.62;99796.04;1783432;79;21037;-68
2021/09/03 00:05:50;;;;;;;2.30;1.80;;;;;;;23.50;40.63;99806.34;1767409;80;21032;-69
2021/09/03 00:08:16;;;;;;;2.75;1.90;;;;;;;23.49;40.34;99802.00;1798281;78;21110;-68
2021/09/03 00:10:44;;;;;;;2.45;1.80;;;;;;;23.47;40.23;99803.61;1763714;81;21152;-69
2021/09/03 00:13:11;;;;;;;2.62;1.80;;;;;;;23.47;40.38;99803.61;1763567;80;21084;-68
2021/09/03 00:15:38;;;;;;;2.10;1.90;;;;;;;23.46;40.34;99805.20;1773598;79;21078;-68
2021/09/03 00:18:04;;;;;;;1.80;1.55;;;;;;;23.46;40.16;99807.92;1771879;79;20987;-67
2021/09/03 00:20:31;;;;;;;2.45;1.52;;;;;;;23.44;40.11;99805.45;1772510;80;21143;-67
2021/09/03 00:22:57;;;;;;;2.22;1.85;;;;;;;23.43;40.18;99802.98;1771359;80;21065;-68
2021/09/03 00:25:24;;;;;;;3.02;1.98;;;;;;;23.42;40.10;99803.53;1753242;80;21042;-68
2021/09/03 00:27:51;;;;;;;1.85;1.70;;;;;;;23.42;40.20;99804.88;1775864;79;20993;-68
2021/09/03 00:30:18;;;;;;;1.65;1.55;;;;;;;23.42;40.18;99810.85;1802095;78;21110;-68
2021/09/03 00:32:46;;;;;;;3.05;1.60;;;;;;;23.42;40.19;99808.14;1796637;78;20986;-68
2021/09/03 00:35:13;;;;;;;2.67;1.90;;;;;;;23.42;40.12;99813.56;1786431;78;21087;-68
2021/09/03 00:37:39;;;;;;;1.87;1.55;;;;;;;23.41;39.88;99810.55;1783563;78;21025;-67
2021/09/03 00:40:07;;;;;;;1.70;1.60;;;;;;;23.40;40.07;99806.22;1795459;78;21559;-68
2021/09/03 00:42:33;;;;;;;1.70;1.52;;;;;;;23.39;39.99;99805.38;1788832;78;21114;-67
2021/09/03 00:45:00;;;;;;;3.80;1.65;;;;;;;23.39;40.10;99805.92;1814827;78;21079;-69
2021/09/03 00:47:26;;;;;;;5.50;4.65;;;;;;;23.38;40.03;99800.23;1818506;78;20984;-68
2021/09/03 00:49:53;;;;;;;7.55;6.00;;;;;;;23.37;39.82;99802.09;1799412;78;21009;-68
2021/09/03 00:52:20;;;;;;;8.08;5.85;;;;;;;23.36;39.86;99797.77;1771372;79;21512;-68
2021/09/03 00:54:47;;;;;;;3.67;2.77;;;;;;;23.35;39.98;99802.37;1769973;79;21534;-67
2021/09/03 00:57:15;;;;;;;3.00;2.47;;;;;;;23.35;39.73;99800.17;1793780;78;21083;-68
2021/09/03 00:59:41;;;;;;;4.90;2.85;;;;;;;23.32;39.81;99808.28;1728083;81;21115;-67
2021/09/03 01:02:08;;;;;;;3.30;2.72;;;;;;;23.32;39.91;99804.22;1804227;78;21027;-68
2021/09/03 01:04:34;;;;;;;3.25;2.30;;;;;;;23.32;39.90;99805.58;1754144;80;21077;-67
2021/09/03 01:07:01;;;;;;;2.27;2.05;;;;;;;23.31;39.78;99799.88;1795910;78;21033;-68
2021/09/03 01:09:28;;;;;;;8.65;2.17;;;;;;;23.31;39.80;99810.73;1796789;78;21139;-68
2021/09/03 01:11:56;;;;;;;2.42;1.90;;;;;;;23.30;39.68;99803.65;1820961;78;21024;-68
2021/09/03 01:14:25;;;;;;;2.60;1.82;;;;;;;23.30;39.76;99802.30;1792761;78;21501;-69
2021/09/03 01:16:53;;;;;;;2.33;2.02;;;;;;;23.29;39.77;99806.61;1809839;78;21115;-68
2021/09/03 01:19:20;;;;;;;1.95;1.67;;;;;;;23.29;39.77;99805.25;1804084;78;21000;-66
2021/09/03 01:21:51;;;;;;;3.45;2.12;;;;;;;23.28;39.65;99804.44;1794249;78;21787;-67
2021/09/03 01:24:19;;;;;;;2.93;1.87;;;;;;;23.28;39.70;99803.63;1792418;79;21500;-68
2021/09/03 01:26:49;;;;;;;2.25;1.87;;;;;;;23.28;39.77;99802.27;1798024;78;21068;-67
2021/09/03 01:29:15;;;;;;;2.75;1.82;;;;;;;23.27;39.78;99806.84;1766385;78;21123;-68
2021/09/03 01:31:42;;;;;;;2.02;1.82;;;;;;;23.27;39.76;99806.03;1782139;78;21044;-68
2021/09/03 01:34:09;;;;;;;2.25;1.80;;;;;;;23.26;39.69;99805.23;1762055;80;21129;-68
2021/09/03 01:36:35;;;;;;;1.62;1.52;;;;;;;23.26;39.60;99800.34;1771640;80;21468;-67
2021/09/03 01:39:03;;;;;;;1.72;1.60;;;;;;;23.25;39.72;99795.98;1767046;80;21557;-68
2021/09/03 01:41:30;;;;;;;2.33;1.90;;;;;;;23.24;39.73;99792.46;1767307;80;21097;-68
2021/09/03 01:43:56;;;;;;;1.60;1.50;;;;;;;23.25;39.78;99798.70;1769410;80;21005;-69
2021/09/03 01:46:22;;;;;;;1.87;1.70;;;;;;;23.24;39.73;99793.00;1764045;81;21115;-67
2021/09/03 01:48:49;;;;;;;1.55;1.45;;;;;;;23.23;39.77;99790.80;1768909;80;21025;-66
2021/09/03 01:51:16;;;;;;;1.95;1.75;;;;;;;23.23;39.77;99789.45;1769951;80;21034;-66
2021/09/03 01:53:42;;;;;;;1.57;1.47;;;;;;;23.23;39.71;99792.70;1769668;80;21069;-66
2021/09/03 01:56:10;;;;;;;2.70;1.60;;;;;;;23.22;39.60;99800.02;1771137;79;21014;-67
2021/09/03 01:58:37;;;;;;;1.67;1.57;;;;;;;23.22;39.68;99789.70;1765586;80;21141;-66
2021/09/03 02:01:03;;;;;;;1.70;1.57;;;;;;;23.21;39.72;99794.30;1768511;79;21006;-68
2021/09/03 02:03:30;;;;;;;1.62;1.52;;;;;;;23.20;39.77;99799.45;1775994;80;21054;-67
2021/09/03 02:05:58;;;;;;;2.12;1.62;;;;;;;23.21;39.60;99805.69;1786137;79;21061;-67
2021/09/03 02:08:26;;;;;;;1.55;1.45;;;;;;;23.20;39.71;99797.26;1783267;79;21058;-67
2021/09/03 02:10:52;;;;;;;1.87;1.60;;;;;;;23.18;39.68;99792.11;1770286;80;21204;-67
2021/09/03 02:13:19;;;;;;;1.80;1.40;;;;;;;23.19;39.66;99786.15;1776659;79;20998;-67
2021/09/03 02:15:46;;;;;;;2.77;1.60;;;;;;;23.19;39.60;99791.03;1770036;79;20975;-67
2021/09/03 02:18:12;;;;;;;1.90;1.40;;;;;;;23.18;39.63;99793.47;1775268;80;21047;-66
2021/09/03 02:20:39;;;;;;;1.52;1.32;;;;;;;23.17;39.68;99787.75;1772044;79;21580;-67
2021/09/03 02:23:06;;;;;;;1.45;1.35;;;;;;;23.17;39.68;99789.11;1778264;79;22298;-67
2021/09/03 02:25:32;;;;;;;3.55;2.00;;;;;;;23.17;39.72;99789.11;1782574;78;21205;-67
2021/09/03 02:27:59;;;;;;;2.02;1.70;;;;;;;23.18;39.58;99789.91;1766717;80;21062;-67
2021/09/03 02:30:25;;;;;;;1.47;1.37;;;;;;;23.16;39.59;99789.65;1746185;80;21048;-67
2021/09/03 02:32:52;;;;;;;1.52;1.42;;;;;;;23.16;39.70;99790.19;1771339;80;21058;-67
2021/09/03 02:35:18;;;;;;;1.60;1.40;;;;;;;23.16;39.56;99794.26;1773499;80;21147;-67
2021/09/03 02:37:45;;;;;;;2.40;1.70;;;;;;;23.15;39.64;99793.41;1776256;80;21069;-66
2021/09/03 02:40:12;;;;;;;1.52;1.42;;;;;;;23.15;39.59;99800.73;1767594;79;21041;-67
2021/09/03 02:42:39;;;;;;;1.75;1.50;;;;;;;23.14;39.50;99794.50;1774788;78;21028;-66
2021/09/03 02:45:08;;;;;;;2.02;1.52;;;;;;;23.14;39.53;99800.43;1747934;80;21053;-67
2021/09/03 02:47:35;;;;;;;1.57;1.47;;;;;;;23.13;39.51;99798.80;1762253;80;21055;-67
2021/09/03 02:50:03;;;;;;;1.80;1.40;;;;;;;23.13;39.57;99794.74;1734230;78;21068;-67
2021/09/03 02:52:30;;;;;;;1.85;1.55;;;;;;;23.13;39.56;99801.52;1752463;80;21494;-67
2021/09/03 02:54:57;;;;;;;1.40;1.30;;;;;;;23.10;39.60;99801.48;1772797;80;21025;-67
2021/09/03 02:57:24;;;;;;;2.02;1.20;;;;;;;23.10;39.50;99797.94;1771642;79;21105;-68
2021/09/03 02:59:52;;;;;;;1.95;1.40;;;;;;;23.09;39.53;99794.42;1774290;80;21088;-68
2021/09/03 03:02:18;;;;;;;1.85;1.50;;;;;;;23.09;39.55;99800.38;1770341;80;21602;-70
2021/09/03 03:04:45;;;;;;;1.95;1.75;;;;;;;23.07;39.56;99797.91;1768036;80;21481;-67
2021/09/03 03:07:11;;;;;;;2.08;1.50;;;;;;;23.08;39.52;99801.44;1768254;79;21529;-67
2021/09/03 03:09:40;;;;;;;2.62;1.72;;;;;;;23.06;39.54;99798.97;1770691;79;21016;-67
2021/09/03 03:12:07;;;;;;;1.40;1.30;;;;;;;23.04;39.56;99796.23;1775847;79;21164;-67
2021/09/03 03:14:35;;;;;;;1.90;1.65;;;;;;;23.04;39.48;99802.46;1800161;78;21064;-67
2021/09/03 03:17:02;;;;;;;2.20;1.80;;;;;;;23.02;39.50;99793.73;1775928;78;21034;-66
2021/09/03 03:19:29;;;;;;;1.40;1.30;;;;;;;23.03;39.52;99802.73;1766420;78;21078;-68
2021/09/03 03:21:57;;;;;;;2.15;1.42;;;;;;;23.03;39.48;99797.31;1770762;79;21064;-67
2021/09/03 03:24:23;;;;;;;1.98;1.47;;;;;;;23.01;39.50;99801.59;1773452;78;21142;-66
2021/09/03 03:26:50;;;;;;;1.65;1.55;;;;;;;23.00;39.44;99810.77;1774495;78;21517;-67
2021/09/03 03:29:16;;;;;;;1.40;1.30;;;;;;;22.99;39.52;99809.15;1772665;80;21038;-68
2021/09/03 03:31:43;;;;;;;2.42;1.50;;;;;;;23.00;39.48;99809.96;1777199;78;21034;-68
2021/09/03 03:34:10;;;;;;;1.82;1.60;;;;;;;22.99;39.42;99811.86;1778822;79;21066;-67
2021/09/03 03:36:38;;;;;;;2.37;1.60;;;;;;;22.99;39.47;99804.27;1771936;78;21074;-69
2021/09/03 03:39:05;;;;;;;3.00;1.72;;;;;;;22.97;39.48;99803.16;1774667;78;21077;-68
2021/09/03 03:41:31;;;;;;;2.50;1.52;;;;;;;22.97;39.51;99803.16;1770836;78;21026;-68
2021/09/03 03:43:58;;;;;;;2.92;1.40;;;;;;;22.97;39.51;99806.69;1777713;78;21011;-68
2021/09/03 03:46:24;;;;;;;2.80;1.60;;;;;;;22.96;39.49;99805.02;1770042;79;21056;-68
2021/09/03 03:48:52;;;;;;;3.15;1.45;;;;;;;22.96;39.40;99806.38;1776671;78;21144;-68
2021/09/03 03:51:18;;;;;;;2.25;1.52;;;;;;;22.95;39.47;99802.05;1771936;79;20998;-68
2021/09/03 03:53:45;;;;;;;1.85;1.62;;;;;;;22.95;39.49;99803.95;1773392;78;21020;-68
2021/09/03 03:56:11;;;;;;;1.95;1.80;;;;;;;22.95;39.42;99801.23;1767830;78;21092;-69
2021/09/03 03:58:37;;;;;;;1.60;1.50;;;;;;;22.94;39.38;99802.29;1769739;78;21100;-69
2021/09/03 04:01:04;;;;;;;1.75;1.62;;;;;;;22.94;39.34;99809.06;1770685;79;21110;-68
2021/09/03 04:03:30;;;;;;;2.15;1.57;;;;;;;22.94;39.38;99809.87;1770173;79;21484;-68
2021/09/03 04:05:59;;;;;;;1.85;1.75;;;;;;;22.94;39.35;99805.00;1769073;79;21040;-68
2021/09/03 04:08:25;;;;;;;2.15;1.57;;;;;;;22.92;39.31;99805.23;1760106;78;21082;-69
2021/09/03 04:10:51;;;;;;;1.75;1.60;;;;;;;22.92;39.31;99805.23;1774650;79;21075;-68
2021/09/03 04:13:19;;;;;;;2.90;1.50;;;;;;;22.92;39.38;99812.02;1764787;78;21141;-67
2021/09/03 04:15:46;;;;;;;2.33;1.90;;;;;;;22.93;39.37;99814.20;1765501;80;21006;-68
2021/09/03 04:18:12;;;;;;;1.77;1.50;;;;;;;22.92;39.37;99806.59;1764421;79;21511;-67
2021/09/03 04:20:40;;;;;;;2.12;1.70;;;;;;;22.93;39.41;99814.20;1764752;78;21061;-68
2021/09/03 04:23:09;;;;;;;2.62;1.92;;;;;;;22.93;39.46;99809.61;1777756;78;21027;-68
2021/09/03 04:25:36;;;;;;;3.72;1.85;;;;;;;22.94;39.43;99807.70;1765257;79;21112;-68
2021/09/03 04:28:03;;;;;;;3.20;1.95;;;;;;;22.93;39.47;99807.44;1767042;78;20991;-67
2021/09/03 04:30:30;;;;;;;5.03;1.98;;;;;;;22.93;39.47;99803.37;1771838;78;20987;-68
2021/09/03 04:32:56;;;;;;;2.10;1.67;;;;;;;22.93;39.50;99805.54;1767734;78;21021;-70
2021/09/03 04:35:23;;;;;;;4.33;2.00;;;;;;;22.94;39.50;99803.64;1761615;78;21036;-70
2021/09/03 04:37:50;;;;;;;4.05;1.65;;;;;;;22.95;39.53;99808.82;1771143;78;21584;-68
2021/09/03 04:40:18;;;;;;;3.05;1.70;;;;;;;22.94;39.49;99803.10;1765009;78;21046;-68
2021/09/03 04:42:45;;;;;;;1.90;1.67;;;;;;;22.94;39.36;99809.87;1762422;79;21033;-67
2021/09/03 04:45:12;;;;;;;1.47;1.30;;;;;;;22.95;39.50;99808.01;1760154;78;21119;-68
2021/09/03 04:47:38;;;;;;;5.28;1.90;;;;;;;22.96;39.48;99806.92;1762565;78;21522;-68
2021/09/03 04:50:06;;;;;;;3.02;2.00;;;;;;;22.96;39.46;99805.02;1775764;78;22127;-69
2021/09/03 04:52:33;;;;;;;2.00;1.90;;;;;;;22.96;39.42;99807.73;1780312;78;20998;-68
2021/09/03 04:54:59;;;;;;;1.92;1.80;;;;;;;22.96;39.41;99809.09;1753982;78;21132;-68
2021/09/03 04:57:26;;;;;;;3.55;2.00;;;;;;;22.97;39.34;99804.52;1777966;78;20994;-68
2021/09/03 04:59:54;;;;;;;2.72;1.87;;;;;;;22.98;39.47;99810.20;1758809;78;20997;-68
2021/09/03 05:02:21;;;;;;;3.20;1.55;;;;;;;22.99;39.47;99815.11;1777177;78;21949;-68
2021/09/03 05:04:47;;;;;;;2.17;1.60;;;;;;;22.99;39.41;99812.40;1767960;80;21255;-69
2021/09/03 05:07:14;;;;;;;2.45;1.70;;;;;;;22.99;39.35;99809.69;1767419;78;21033;-68
2021/09/03 05:09:40;;;;;;;1.67;1.45;;;;;;;23.00;39.44;99814.02;1763075;78;21085;-67
2021/09/03 05:12:07;;;;;;;3.60;1.70;;;;;;;23.01;39.38;99815.14;1768742;78;21042;-67
2021/09/03 05:14:34;;;;;;;3.42;2.55;;;;;;;23.01;39.37;99815.67;1764932;78;21188;-68
2021/09/03 05:17:02;;;;;;;2.65;1.80;;;;;;;23.01;39.45;99811.08;1770072;78;21025;-68
2021/09/03 05:19:30;;;;;;;2.20;1.67;;;;;;;23.02;39.45;99811.34;1760073;78;21604;-67
2021/09/03 05:21:58;;;;;;;4.80;1.80;;;;;;;23.03;39.40;99817.64;1779254;78;21018;-67
2021/09/03 05:24:25;;;;;;;2.90;1.67;;;;;;;22.99;39.41;99806.98;1764209;78;21077;-67
2021/09/03 05:26:52;;;;;;;2.72;1.50;;;;;;;23.03;39.49;99813.03;1767958;79;21263;-66
2021/09/03 05:29:19;;;;;;;3.92;2.30;;;;;;;23.05;39.76;99811.43;1768490;79;21028;-70
2021/09/03 05:31:45;;;;;;;2.05;1.77;;;;;;;23.06;39.83;99812.52;1792314;78;21112;-68
2021/09/03 05:34:11;;;;;;;2.47;1.85;;;;;;;23.06;39.74;99810.34;1791273;78;21534;-67
2021/09/03 05:36:39;;;;;;;2.90;1.62;;;;;;;23.07;39.93;99818.23;1798425;78;21484;-67
2021/09/03 05:39:06;;;;;;;2.45;1.50;;;;;;;23.08;40.07;99815.82;1775944;78;21056;-67
2021/09/03 05:41:34;;;;;;;3.45;1.60;;;;;;;23.09;40.07;99812.03;1791099;78;21005;-68
2021/09/03 05:44:00;;;;;;;4.45;1.30;;;;;;;23.10;39.80;99809.62;1796723;78;21087;-67
2021/09/03 05:46:26;;;;;;;6.97;2.15;;;;;;;23.11;39.82;99808.53;1774135;78;21080;-69
2021/09/03 05:48:53;;;;;;;4.45;1.40;;;;;;;23.12;40.00;99802.57;1781447;78;21064;-69
2021/09/03 05:51:20;;;;;;;7.83;2.40;;;;;;;23.12;40.19;99798.51;1771235;78;21184;-65
2021/09/03 05:53:46;;;;;;;11.43;3.47;;;;;;;23.14;40.87;99801.78;1793059;78;21044;-68
2021/09/03 05:56:13;;;;;;;15.78;3.50;;;;;;;23.17;41.68;99799.94;1761941;80;21038;-68
2021/09/03 05:58:39;;;;;;;11.08;3.75;;;;;;;23.18;42.55;99802.95;1754706;80;20966;-68
2021/09/03 06:01:05;;;;;;;9.65;3.52;;;;;;;23.21;43.09;99805.14;1754745;80;21013;-68
2021/09/03 06:03:32;;;;;;;9.60;3.70;;;;;;;23.24;43.21;99806.55;1773039;80;21307;-68
2021/09/03 06:06:00;;;;;;;5.80;2.77;;;;;;;23.27;43.31;99808.20;1786101;78;21076;-70
2021/09/03 06:08:26;;;;;;;7.05;2.50;;;;;;;23.29;43.42;99795.77;1767285;80;21044;-69
2021/09/03 06:10:53;;;;;;;4.70;2.85;;;;;;;23.33;43.41;99798.25;1766896;80;21085;-70
2021/09/03 06:13:21;;;;;;;3.92;2.45;;;;;;;23.34;43.34;99800.72;1762790;80;21041;-68
2021/09/03 06:15:47;;;;;;;5.08;2.40;;;;;;;23.38;43.38;99794.81;1768081;80;21260;-69
2021/09/03 06:18:14;;;;;;;6.45;2.70;;;;;;;23.41;43.29;99801.91;1771758;80;21026;-70
2021/09/03 06:20:40;;;;;;;4.25;2.10;;;;;;;23.45;43.20;99794.06;1771918;80;21049;-70
2021/09/03 06:23:06;;;;;;;4.83;2.85;;;;;;;23.47;43.25;99798.70;1771807;79;21042;-70
2021/09/03 06:25:34;;;;;;;8.33;2.35;;;;;;;23.49;43.21;99797.39;1774970;79;21023;-75
2021/09/03 06:28:00;;;;;;;5.42;2.05;;;;;;;23.51;43.17;99791.18;1761257;79;21106;-68
2021/09/03 06:30:27;;;;;;;14.23;6.17;;;;;;;23.52;42.92;99790.64;1770823;78;20994;-69
2021/09/03 06:32:54;;;;;;;33.30;16.32;;;;;;;23.55;42.92;99779.30;1776725;80;21052;-69
2021/09/03 06:35:21;;;;;;;24.47;14.40;;;;;;;23.56;43.01;99790.41;1796067;78;21020;-71
2021/09/03 06:37:47;;;;;;;25.52;11.30;;;;;;;23.58;43.08;99788.27;1743793;80;21033;-70
2021/09/03 06:40:14;;;;;;;13.48;8.15;;;;;;;23.59;42.89;99785.86;1810991;78;21134;-69
2021/09/03 06:42:40;;;;;;;13.40;6.55;;;;;;;23.60;42.78;99783.41;1806932;78;21020;-70
2021/09/03 06:45:10;;;;;;;8.13;4.85;;;;;;;23.60;42.48;99783.41;1761794;78;21533;-70
2021/09/03 06:47:37;;;;;;;8.33;4.37;;;;;;;23.61;42.23;99783.70;1767386;78;21112;-70
2021/09/03 06:50:06;;;;;;;8.45;4.87;;;;;;;23.62;42.11;99788.04;1771038;78;21352;-70
2021/09/03 06:52:33;;;;;;;7.75;4.33;;;;;;;23.63;41.84;99784.81;1775452;78;21106;-70
2021/09/03 06:55:00;;;;;;;7.65;3.58;;;;;;;23.64;41.83;99786.44;1772743;78;21514;-67
2021/09/03 06:57:27;;;;;;;8.38;4.10;;;;;;;23.65;42.03;99780.77;1761168;78;21539;-65
2021/09/03 06:59:53;;;;;;;10.13;4.40;;;;;;;23.66;41.88;99782.42;1764308;78;21018;-64
2021/09/03 07:02:20;;;;;;;7.42;3.77;;;;;;;23.68;42.06;99785.70;1766713;78;21108;-66
2021/09/03 07:04:47;;;;;;;4.67;3.42;;;;;;;23.70;41.89;99790.33;1765896;78;21908;-65
2021/09/03 07:07:13;;;;;;;6.35;3.50;;;;;;;23.71;41.98;99787.88;1760561;78;21488;-65
2021/09/03 07:09:39;;;;;;;6.62;3.33;;;;;;;23.72;41.76;99785.47;1772499;78;21485;-64
2021/09/03 07:12:06;;;;;;;7.45;2.87;;;;;;;23.73;41.72;99787.09;1768167;78;21882;-64
2021/09/03 07:14:34;;;;;;;6.87;3.37;;;;;;;23.73;41.60;99787.09;1765300;78;21045;-64
2021/09/03 07:17:01;;;;;;;4.10;2.72;;;;;;;23.74;41.56;99779.25;1773485;78;21048;-69
2021/09/03 07:19:27;;;;;;;4.53;2.62;;;;;;;23.75;41.60;99786.30;1771798;78;21013;-68
2021/09/03 07:21:55;;;;;;;4.67;2.55;;;;;;;23.78;41.43;99784.15;1761558;78;21041;-64
2021/09/03 07:24:21;;;;;;;3.72;2.80;;;;;;;23.80;41.47;99787.45;1764824;78;20985;-65
2021/09/03 07:26:48;;;;;;;3.98;2.40;;;;;;;23.81;41.35;99776.36;1772021;78;21112;-65
2021/09/03 07:29:14;;;;;;;3.27;2.20;;;;;;;23.82;41.33;99773.13;1771107;78;22008;-65
2021/09/03 07:31:41;;;;;;;3.60;2.30;;;;;;;23.82;41.16;99772.59;1776972;79;21021;-67
2021/09/03 07:34:07;;;;;;;6.45;3.58;;;;;;;23.84;41.20;99770.44;1779143;80;21088;-65
2021/09/03 07:36:33;;;;;;;3.42;2.98;;;;;;;23.85;41.21;99774.77;1774085;80;21053;-65
2021/09/03 07:39:01;;;;;;;3.98;2.47;;;;;;;23.86;41.17;99762.05;1776990;79;21038;-65
2021/09/03 07:41:28;;;;;;;5.15;2.87;;;;;;;23.87;41.13;99764.48;1773436;79;21085;-65
2021/09/03 07:45:23;;;;;;;4.35;3.15;;;;;;;23.94;41.23;99766.47;1879390;75;22437;-64
2021/09/03 07:47:49;;;;;;;4.50;2.62;;;;;;;23.91;41.13;99767.00;1856672;77;20914;-65
2021/09/03 07:50:17;;;;;;;5.78;2.17;;;;;;;23.93;40.97;99761.28;1840782;77;21088;-64
2021/09/03 07:52:45;;;;;;;3.05;2.02;;;;;;;23.94;40.91;99754.25;1842070;77;20984;-65
2021/09/03 07:55:12;;;;;;;4.85;2.47;;;;;;;23.96;40.91;99758.08;1851916;77;21075;-65
2021/09/03 07:57:39;;;;;;;4.12;2.58;;;;;;;23.97;40.96;99752.95;1851155;77;21107;-66
2021/09/03 08:00:07;;;;;;;3.00;2.15;;;;;;;23.99;41.03;99748.59;1833505;77;21005;-66
2021/09/03 08:02:35;;;;;;;3.10;2.27;;;;;;;24.01;40.82;99747.28;1854582;76;21065;-66
2021/09/03 08:05:02;;;;;;;3.83;2.10;;;;;;;24.02;40.86;99743.48;1854590;77;22190;-65
2021/09/03 08:07:30;;;;;;;2.47;2.27;;;;;;;24.04;40.80;99743.23;1826126;77;21005;-65
2021/09/03 08:09:57;;;;;;;2.47;1.90;;;;;;;24.05;40.67;99749.77;1825477;77;21489;-67
2021/09/03 08:12:24;;;;;;;2.92;2.30;;;;;;;24.07;40.62;99744.89;1825979;77;21091;-65
2021/09/03 08:14:52;;;;;;;2.72;1.95;;;;;;;24.09;40.59;99739.22;1841328;77;21060;-65
2021/09/03 08:17:20;;;;;;;3.85;2.25;;;;;;;24.11;40.63;99737.06;1812455;78;21041;-65
2021/09/03 08:19:47;;;;;;;3.20;2.22;;;;;;;24.13;40.66;99737.08;1735882;81;21043;-65
2021/09/03 08:22:13;;;;;;;3.15;1.82;;;;;;;24.16;40.63;99733.56;1767720;79;21047;-65
2021/09/03 08:24:40;;;;;;;2.40;1.95;;;;;;;24.18;40.64;99725.98;1779263;79;20978;-65
2021/09/03 08:27:07;;;;;;;3.50;2.35;;;;;;;24.20;40.63;99730.61;1762284;80;21294;-65
2021/09/03 08:29:33;;;;;;;2.67;1.90;;;;;;;24.23;40.64;99728.75;1786356;79;21061;-67
2021/09/03 08:32:00;;;;;;;4.03;2.77;;;;;;;24.25;40.61;99736.09;1795626;79;21025;-66
2021/09/03 08:34:26;;;;;;;8.65;2.17;;;;;;;24.27;40.57;99728.51;1820333;78;21116;-67
2021/09/03 08:36:53;;;;;;;7.35;2.37;;;;;;;24.29;40.62;99720.92;1789242;80;21036;-67
2021/09/03 08:39:19;;;;;;;2.60;1.87;;;;;;;24.31;40.61;99714.69;1821554;78;21080;-67
2021/09/03 08:41:46;;;;;;;2.92;1.90;;;;;;;24.34;40.62;99722.33;1788951;78;21727;-68
2021/09/03 08:44:12;;;;;;;3.20;1.80;;;;;;;24.36;40.60;99713.38;1806191;78;20973;-69
2021/09/03 08:46:39;;;;;;;3.95;1.87;;;;;;;24.38;40.55;99715.30;1810789;78;21225;-66
2021/09/03 08:49:07;;;;;;;5.85;1.92;;;;;;;24.41;40.57;99714.76;1802056;78;21112;-67
2021/09/03 08:51:33;;;;;;;5.40;2.12;;;;;;;24.45;40.54;99715.06;1789791;78;21499;-68
2021/09/03 08:54:01;;;;;;;5.22;2.00;;;;;;;24.48;40.46;99710.48;1777094;80;21088;-66
2021/09/03 08:56:28;;;;;;;5.78;3.25;;;;;;;24.51;40.42;99712.69;1783897;80;21111;-66
2021/09/03 08:58:55;;;;;;;8.90;3.90;;;;;;;24.53;40.50;99704.58;1785067;80;21092;-66
2021/09/03 09:01:22;;;;;;;9.35;4.70;;;;;;;24.57;40.55;99704.04;1785309;80;21081;-66
2021/09/03 09:03:50;;;;;;;13.03;5.20;;;;;;;24.60;40.64;99713.03;1785875;79;21128;-66
2021/09/03 09:06:25;;;;;;;13.95;4.50;;;;;;;24.64;40.64;99706.80;1766577;80;21041;-66
2021/09/03 09:09:10;;;;;;;9.40;4.97;;;;;;;24.68;40.71;99706.55;1784944;79;21018;-66
2021/09/03 09:11:36;;;;;;;10.20;6.72;;;;;;;24.72;40.42;99705.49;1795908;78;21041;-66
2021/09/03 09:14:05;;;;;;;7.45;4.60;;;;;;;24.77;40.05;99699.30;1806618;78;21531;-66
2021/09/03 09:16:33;;;;;;;8.33;4.00;;;;;;;24.80;39.92;99690.08;1794547;78;21169;-66
2021/09/03 09:19:03;;;;;;;9.20;4.30;;;;;;;24.85;39.49;99696.87;1780201;80;20990;-66
2021/09/03 09:21:37;;;;;;;7.03;3.52;;;;;;;24.89;39.58;99700.70;1803227;78;21472;-64
2021/09/03 09:24:12;;;;;;;8.73;3.62;;;;;;;24.92;39.24;99692.03;1787801;80;21081;-66
2021/09/03 09:26:49;;;;;;;5.12;3.02;;;;;;;24.95;38.91;99689.87;1782637;78;21087;-66
2021/09/03 09:29:28;;;;;;;4.00;2.55;;;;;;;24.98;38.71;99683.92;1809219;78;21616;-66
2021/09/03 09:32:09;;;;;;;4.10;2.72;;;;;;;25.01;38.31;99684.73;1791040;78;21049;-65
2021/09/03 09:34:40;;;;;;;4.65;2.62;;;;;;;25.03;38.13;99679.30;1817201;78;21041;-66
2021/09/03 09:37:10;;;;;;;4.60;2.08;;;;;;;25.05;37.83;99677.67;1780987;78;21065;-67
2021/09/03 09:39:56;;;;;;;5.20;2.37;;;;;;;25.07;37.82;99680.95;1789742;78;21088;-65
2021/09/03 09:42:29;;;;;;;5.90;2.22;;;;;;;25.08;37.75;99677.97;1770178;78;21818;-73
2021/09/03 09:45:08;;;;;;;4.78;2.12;;;;;;;25.09;37.83;99680.98;1813472;77;21537;-69
2021/09/03 09:47:36;;;;;;;5.55;1.80;;;;;;;25.10;37.11;99673.63;1820683;78;21002;-69
2021/09/03 09:50:32;;;;;;;3.12;1.32;;;;;;;24.99;36.17;99676.03;1784793;80;21012;-69
2021/09/03 09:53:10;;;;;;;6.45;2.25;;;;;;;24.87;35.83;99671.63;1817717;78;20997;-70
2021/09/03 09:55:37;;;;;;;4.17;3.22;;;;;;;24.71;36.18;99669.38;1811215;79;21155;-70
2021/09/03 09:58:04;;;;;;;14.07;11.12;;;;;;;24.61;35.61;99667.97;1782113;79;20983;-70
2021/09/03 10:00:35;;;;;;;13.60;8.63;;;;;;;24.48;35.58;99666.48;1793860;79;21488;-69
2021/09/03 10:03:04;;;;;;;9.30;4.65;;;;;;;24.41;35.95;99667.25;1787869;79;21087;-75
2021/09/03 10:05:30;;;;;;;9.75;3.62;;;;;;;24.36;35.65;99664.52;1783292;79;21454;-75
2021/09/03 10:07:57;;;;;;;4.90;3.90;;;;;;;24.30;35.49;99671.80;1786105;79;21221;-69
2021/09/03 10:10:26;;;;;;;3.77;2.95;;;;;;;24.22;35.61;99666.87;1794112;80;21064;-72
2021/09/03 10:12:54;;;;;;;5.78;3.10;;;;;;;24.17;35.93;99664.66;1791341;78;21036;-70
2021/09/03 10:15:20;;;;;;;4.33;2.87;;;;;;;24.14;36.09;99658.67;1779928;80;21085;-70
2021/09/03 10:17:48;;;;;;;3.70;2.80;;;;;;;24.17;36.54;99651.08;1786698;79;21013;-72
2021/09/03 10:20:17;;;;;;;7.70;2.45;;;;;;;24.21;36.21;99658.44;1792699;80;21536;-73
2021/09/03 10:22:46;;;;;;;2.10;1.82;;;;;;;24.21;35.91;99648.94;1785754;78;21016;-71
2021/09/03 10:25:13;;;;;;;3.77;2.15;;;;;;;24.23;36.51;99649.48;1793610;80;20994;-73
2021/09/03 10:27:40;;;;;;;3.08;1.98;;;;;;;24.29;36.28;99638.94;1804280;78;21061;-68
2021/09/03 10:30:14;;;;;;;2.67;1.95;;;;;;;24.32;35.60;99641.14;1805548;78;21060;-70
2021/09/03 10:32:41;;;;;;;10.60;7.83;;;;;;;24.32;35.67;99630.83;1820251;78;21147;-68
2021/09/03 10:35:20;;;;;;;8.35;6.08;;;;;;;24.32;35.48;99637.08;1782909;80;21049;-67
2021/09/03 10:37:47;;;;;;;7.70;3.42;;;;;;;24.29;35.03;99635.42;1788793;79;21069;-68
2021/09/03 10:40:26;;;;;;;2.87;1.90;;;;;;;24.22;34.90;99635.66;1781110;79;21127;-65
2021/09/03 10:42:59;;;;;;;2.75;1.98;;;;;;;24.17;34.82;99627.47;1771127;80;21545;-66
2021/09/03 10:45:43;;;;;;;3.10;2.15;;;;;;;24.10;34.79;99629.03;1790886;78;21093;-67
2021/09/03 10:48:19;;;;;;;3.27;2.00;;;;;;;24.03;34.53;99628.45;1768583;78;21093;-64
2021/09/03 10:50:55;;;;;;;3.70;1.77;;;;;;;23.91;34.21;99627.80;1809039;78;21568;-65
2021/09/03 10:53:37;;;;;;;4.08;1.92;;;;;;;23.82;34.57;99623.95;1816290;78;21111;-63
2021/09/03 10:56:17;;;;;;;3.77;1.80;;;;;;;23.77;34.87;99629.28;1815238;78;21075;-67
2021/09/03 10:58:52;;;;;;;4.10;1.95;;;;;;;23.73;34.52;99618.13;1815042;78;21307;-66
2021/09/03 11:01:27;;;;;;;2.90;1.82;;;;;;;23.70;34.68;99617.28;1816039;78;21021;-65
2021/09/03 11:04:16;;;;;;;3.80;2.25;;;;;;;23.75;34.86;99620.05;1808289;78;21040;-65
2021/09/03 11:07:05;;;;;;;4.17;2.58;;;;;;;23.79;34.62;99615.77;1811464;78;21012;-68
2021/09/03 11:09:31;;;;;;;4.37;2.77;;;;;;;23.78;34.62;99614.16;1799071;78;21866;-75
2021/09/03 11:12:11;;;;;;;3.98;2.05;;;;;;;23.75;34.40;99610.55;1812793;78;21042;-67
2021/09/03 11:14:39;;;;;;;4.97;3.17;;;;;;;23.77;34.17;99607.05;1810356;78;21212;-66
2021/09/03 11:17:12;;;;;;;19.05;14.75;;;;;;;23.80;34.09;99608.44;1771125;79;21088;-66
2021/09/03 11:19:46;;;;;;;5.25;3.80;;;;;;;23.83;34.13;99597.89;1805210;78;20993;-68
2021/09/03 11:22:17;;;;;;;4.97;3.02;;;;;;;23.88;34.05;99596.59;1811387;78;20987;-69
2021/09/03 11:24:52;;;;;;;4.65;2.85;;;;;;;23.97;34.12;99590.68;1766234;78;20994;-69
2021/09/03 11:27:23;;;;;;;3.80;2.40;;;;;;;24.06;34.08;99588.58;1780903;80;21544;-67
2021/09/03 11:29:55;;;;;;;2.75;2.35;;;;;;;24.19;33.94;99590.58;1771722;79;21037;-68
2021/09/03 11:32:25;;;;;;;5.33;2.37;;;;;;;24.27;33.73;99581.94;1782717;80;21088;-70
2021/09/03 11:35:12;;;;;;;3.85;2.10;;;;;;;24.35;33.74;99580.07;1777372;79;21013;-74
2021/09/03 11:37:42;;;;;;;4.65;2.47;;;;;;;24.43;33.47;99583.64;1786588;79;21098;-68